Terminal Aerodrome Forecast
Issued by NWS

Home | Current Version | Previous Version | Graphics & Text | Print | Product List | Glossary On
Versions: 1 2 3 4 5 6 7 8 9 10 11 12 13 14 15 16 17
000
FTUS43 KGRB 301730
TAFATW
TAF
KATW 301730Z 3018/0118 06015G26KT 6SM BR OVC007
      TEMPO 3018/3020 5SM -SHRA BR OVC006
     FM302000 05015G26KT 4SM SHRA OVC005
     FM010300 07011G23KT 4SM RA OVC006
     FM011100 16006KT 5SM -SHRA OVC004
     FM011400 20008KT 5SM -SHRA OVC008
     FM011700 19009KT P6SM -SHRA OVC010=

USA.gov is the U.S. government's official web portal to all federal, state and local government web resources and services.